Arlington, VA (22203)

12:36 AM EDT on May 25, 2015 (GMT -0400)
Barcroft Neighborhood | | Change Station
CLOSE
Current Station
Personal Weather Station
Location: Arlington, VA
Elevation: 200 ft
Nearby Weather Stations

Elev 200 ft 38.86 °N, 77.11 °W | Updated 3 seconds ago

Partly Cloudy
Partly Cloudy
69.6 °F
Feels Like 69.6 °F
N
0.0
Wind Variable Wind from WSW
Gusts 0.0 mph

Today
High -- | Low -- °F
--% Chance of Precip.
Yesterday
High -- | Low -- °F
Precip. -- in
5:48 AM 8:22 PM
Waxing Crescent, 45% visible
Pressure 30.27 in
Visibility 10.0 miles
Clouds Mostly Cloudy 25000 ft
Dew Point 59 °F
Humidity 69%
Rainfall 0.00 in
Snow Depth Not available.
UV 0 out of 12
Pollen 8.20 out of 12
Air Quality Not available.
Flu Activity No Activity
METAR KDCA 250352Z 19007KT 10SM BKN250 22/14 A3027 RMK AO2 SLP249 T02220144 $

More Conditions Fewer Conditions

Pressure 30.27 in
Visibility 10.0 miles
Clouds Mostly Cloudy 25000 ft
Dew Point 59 °F
Humidity 69%
Rainfall 0.00 in
Snow Depth Not available.
UV 0 out of 12
Pollen 8.20 out of 12
Air Quality Not available.
Flu Activity No Activity
METAR KDCA 250352Z 19007KT 10SM BKN250 22/14 A3027 RMK AO2 SLP249 T02220144 $

More Conditions Fewer Conditions

10-Day Weather Forecast

Almanac

Astronomy

May. 25, 2015 Rise Set
Actual Time
Civil Twilight
Nautical Twilight
Astronomical Twilight
Moon
Length of Visible Light
Length of Day
Tomorrow will be .
, % of the Moon is Illuminated

Today's Extremes

State Highs State Lows

Community

WunderPhotos

Upload Photos

1,823,954 photos uploaded!

WunderBlogs® & News

Nearby

Air Quality

  Air Quality AQ Index Pollutant
Not available.

Snow Depth

Station Depth Elevation

Earthquake Activity

City Distance Mag. Time & Date
Minimum magnitude displayed is 2.5.

Coastal Water Temperatures

Place Temperature

Stations

Nearby Weather Stations

Station Location Temp. Windchill Dew Point Humidity Wind Precip. Elev Updated Type